PWSweather.com
Personal Weather Stations
Station Observations
CW6488
River Forest, Covington, LA 70433

River ForestCovington, LA 70433

Lat: 30.4876, Lon: -90.1406

Elevation: 32

Station Type: WMR968

Latest ConditionsUpdated 10:20:05 AM CDT Friday, Sep 22, 2017
Currently Today's Max Today's Min Today's Average
Temperature 83.5°F28.6°C 83.5°F28.6°C 69.7°F20.9°C 72.4°F22.4°C
Dew Point 77.4°F25.2°C 77.5°F25.3°C 69.1°F20.6°C 71.5°F21.9°C
Winds 2.0 mph SSE3.2 kmh SSE 2.0 mph SSE3.2 kmh SSE - 0.1 mph 0.2 kmh
Wind Gusts -- -- - -
Humidity 82% 99% 82% 97%
Pressure 29.98 in1015.2 mb 29.98 in1015.2 mb 29.93 in1013.5 mb -
Hour Temp Dew Point Humidity Winds Wind Gusts Pressure Precip Precip Rate Daily Precip Total
10:20 AM 83.5°F28.6°C 77.4°F25.2°C 82% 2.0 mph SSE3.2 kmh SSE -- 29.98 in1015.2 mb 0.01 in0.3 mm 0.06 in1.5 mm 0.01 in0.3 mm
10:10 AM 82.8°F28.2°C 77.5°F25.3°C 84% 1.0 mph SW1.6 kmh SW -- 29.98 in1015.2 mb 0.00 in0.0 mm 0.00 in0.0 mm 0.00 in0.0 mm
10:00 AM 81.8°F27.7°C 77.2°F25.1°C 86% Calm Calm -- 29.98 in1015.2 mb 0.00 in0.0 mm 0.00 in0.0 mm 0.00 in0.0 mm
09:50 AM 80.0°F26.7°C 76.1°F24.5°C 88% 2.0 mph SSW3.2 kmh SSW -- 29.98 in1015.2 mb 0.00 in0.0 mm 0.00 in0.0 mm 0.00 in0.0 mm
09:40 AM 79.4°F26.3°C 76.2°F24.6°C 90% 1.0 mph SW1.6 kmh SW -- 29.98 in1015.2 mb 0.00 in0.0 mm 0.00 in0.0 mm 0.00 in0.0 mm
09:30 AM 78.3°F25.7°C 75.8°F24.3°C 92% Calm Calm -- 29.97 in1014.9 mb 0.00 in0.0 mm 0.00 in0.0 mm 0.00 in0.0 mm
09:20 AM 76.7°F24.8°C 74.9°F23.8°C 94% 1.0 mph S1.6 kmh S -- 29.97 in1014.9 mb 0.00 in0.0 mm 0.00 in0.0 mm 0.00 in0.0 mm
09:10 AM 75.9°F24.4°C 74.7°F23.7°C 96% 1.0 mph S1.6 kmh S -- 29.97 in1014.9 mb 0.00 in0.0 mm 0.00 in0.0 mm 0.00 in0.0 mm
09:00 AM 75.2°F24.0°C 74.3°F23.5°C 97% 1.0 mph S1.6 kmh S -- 29.97 in1014.9 mb 0.00 in0.0 mm 0.00 in0.0 mm 0.00 in0.0 mm
08:50 AM 74.6°F23.7°C 73.7°F23.2°C 97% Calm Calm -- 29.97 in1014.9 mb 0.00 in0.0 mm 0.00 in0.0 mm 0.00 in0.0 mm
08:40 AM 73.8°F23.2°C 73.2°F22.9°C 98% Calm Calm -- 29.97 in1014.9 mb 0.00 in0.0 mm 0.00 in0.0 mm 0.00 in0.0 mm
08:30 AM 72.9°F22.7°C 72.3°F22.4°C 98% Calm Calm -- 29.97 in1014.9 mb 0.00 in0.0 mm 0.00 in0.0 mm 0.00 in0.0 mm
08:20 AM 72.2°F22.3°C 71.6°F22.0°C 98% Calm Calm -- 29.96 in1014.6 mb 0.00 in0.0 mm 0.00 in0.0 mm 0.00 in0.0 mm
08:10 AM 71.7°F22.1°C 71.1°F21.7°C 98% Calm Calm -- 29.96 in1014.6 mb 0.00 in0.0 mm 0.00 in0.0 mm 0.00 in0.0 mm
08:00 AM 71.2°F21.8°C 70.9°F21.6°C 99% Calm Calm -- 29.96 in1014.6 mb 0.00 in0.0 mm 0.00 in0.0 mm 0.00 in0.0 mm
07:50 AM 70.5°F21.4°C 70.2°F21.2°C 99% Calm Calm -- 29.96 in1014.6 mb 0.00 in0.0 mm 0.00 in0.0 mm 0.00 in0.0 mm
07:40 AM 70.3°F21.3°C 69.7°F20.9°C 98% Calm Calm -- 29.96 in1014.6 mb 0.00 in0.0 mm 0.00 in0.0 mm 0.00 in0.0 mm
07:30 AM 69.9°F21.1°C 69.3°F20.7°C 98% Calm Calm -- 29.96 in1014.6 mb 0.00 in0.0 mm 0.00 in0.0 mm 0.00 in0.0 mm
07:20 AM 69.9°F21.1°C 69.3°F20.7°C 98% Calm Calm -- 29.96 in1014.6 mb 0.00 in0.0 mm 0.00 in0.0 mm 0.00 in0.0 mm
07:10 AM 69.8°F21.0°C 69.2°F20.7°C 98% Calm Calm -- 29.96 in1014.6 mb 0.00 in0.0 mm 0.00 in0.0 mm 0.00 in0.0 mm
07:00 AM 69.7°F20.9°C 69.1°F20.6°C 98% Calm Calm -- 29.96 in1014.6 mb 0.00 in0.0 mm 0.00 in0.0 mm 0.00 in0.0 mm
06:50 AM 69.7°F20.9°C 69.1°F20.6°C 98% Calm Calm -- 29.95 in1014.2 mb 0.00 in0.0 mm 0.00 in0.0 mm 0.00 in0.0 mm
06:40 AM 69.8°F21.0°C 69.2°F20.7°C 98% Calm Calm -- 29.95 in1014.2 mb 0.00 in0.0 mm 0.00 in0.0 mm 0.00 in0.0 mm
06:30 AM 70.1°F21.2°C 69.5°F20.8°C 98% Calm Calm -- 29.95 in1014.2 mb 0.00 in0.0 mm 0.00 in0.0 mm 0.00 in0.0 mm
06:20 AM 69.9°F21.1°C 69.3°F20.7°C 98% Calm Calm -- 29.95 in1014.2 mb 0.00 in0.0 mm 0.00 in0.0 mm 0.00 in0.0 mm
06:10 AM 69.9°F21.1°C 69.3°F20.7°C 98% Calm Calm -- 29.95 in1014.2 mb 0.00 in0.0 mm 0.00 in0.0 mm 0.00 in0.0 mm
06:00 AM 70.1°F21.2°C 69.5°F20.8°C 98% Calm Calm -- 29.95 in1014.2 mb 0.00 in0.0 mm 0.00 in0.0 mm 0.00 in0.0 mm
05:50 AM 70.1°F21.2°C 69.5°F20.8°C 98% Calm Calm -- 29.95 in1014.2 mb 0.00 in0.0 mm 0.00 in0.0 mm 0.00 in0.0 mm
05:40 AM 70.1°F21.2°C 69.5°F20.8°C 98% Calm Calm -- 29.94 in1013.9 mb 0.00 in0.0 mm 0.00 in0.0 mm 0.00 in0.0 mm
05:30 AM 70.3°F21.3°C 69.7°F20.9°C 98% Calm Calm -- 29.94 in1013.9 mb 0.00 in0.0 mm 0.00 in0.0 mm 0.00 in0.0 mm
05:20 AM 70.3°F21.3°C 69.7°F20.9°C 98% Calm Calm -- 29.93 in1013.5 mb 0.00 in0.0 mm 0.00 in0.0 mm 0.00 in0.0 mm
05:10 AM 70.5°F21.4°C 69.9°F21.1°C 98% Calm Calm -- 29.94 in1013.9 mb 0.00 in0.0 mm 0.00 in0.0 mm 0.00 in0.0 mm
05:00 AM 70.5°F21.4°C 69.9°F21.1°C 98% Calm Calm -- 29.93 in1013.5 mb 0.00 in0.0 mm 0.00 in0.0 mm 0.00 in0.0 mm
04:50 AM 70.7°F21.5°C 70.1°F21.2°C 98% Calm Calm -- 29.93 in1013.5 mb 0.00 in0.0 mm 0.00 in0.0 mm 0.00 in0.0 mm
04:40 AM 70.7°F21.5°C 70.1°F21.2°C 98% Calm Calm -- 29.93 in1013.5 mb 0.00 in0.0 mm 0.00 in0.0 mm 0.00 in0.0 mm
04:30 AM 70.8°F21.6°C 70.2°F21.2°C 98% Calm Calm -- 29.93 in1013.5 mb 0.00 in0.0 mm 0.00 in0.0 mm 0.00 in0.0 mm
04:20 AM 71.0°F21.7°C 70.4°F21.3°C 98% Calm Calm -- 29.93 in1013.5 mb 0.00 in0.0 mm 0.00 in0.0 mm 0.00 in0.0 mm
04:10 AM 71.1°F21.7°C 70.5°F21.4°C 98% Calm Calm -- 29.93 in1013.5 mb 0.00 in0.0 mm 0.00 in0.0 mm 0.00 in0.0 mm
04:00 AM 71.1°F21.7°C 70.5°F21.4°C 98% Calm Calm -- 29.93 in1013.5 mb 0.00 in0.0 mm 0.00 in0.0 mm 0.00 in0.0 mm
03:50 AM 71.2°F21.8°C 70.6°F21.4°C 98% Calm Calm -- 29.93 in1013.5 mb 0.00 in0.0 mm 0.00 in0.0 mm 0.00 in0.0 mm
03:40 AM 71.2°F21.8°C 70.6°F21.4°C 98% Calm Calm -- 29.93 in1013.5 mb 0.00 in0.0 mm 0.00 in0.0 mm 0.00 in0.0 mm
03:30 AM 71.1°F21.7°C 70.5°F21.4°C 98% Calm Calm -- 29.93 in1013.5 mb 0.00 in0.0 mm 0.00 in0.0 mm 0.00 in0.0 mm
03:20 AM 71.3°F21.8°C 70.7°F21.5°C 98% Calm Calm -- 29.93 in1013.5 mb 0.00 in0.0 mm 0.00 in0.0 mm 0.00 in0.0 mm
03:10 AM 71.5°F21.9°C 70.9°F21.6°C 98% Calm Calm -- 29.93 in1013.5 mb 0.00 in0.0 mm 0.00 in0.0 mm 0.00 in0.0 mm
03:00 AM 71.4°F21.9°C 70.8°F21.6°C 98% Calm Calm -- 29.93 in1013.5 mb 0.00 in0.0 mm 0.00 in0.0 mm 0.00 in0.0 mm
02:50 AM 71.4°F21.9°C 70.8°F21.6°C 98% Calm Calm -- 29.93 in1013.5 mb 0.00 in0.0 mm 0.00 in0.0 mm 0.00 in0.0 mm
02:40 AM 71.5°F21.9°C 70.9°F21.6°C 98% Calm Calm -- 29.94 in1013.9 mb 0.00 in0.0 mm 0.00 in0.0 mm 0.00 in0.0 mm
02:30 AM 71.7°F22.1°C 71.1°F21.7°C 98% Calm Calm -- 29.94 in1013.9 mb 0.00 in0.0 mm 0.00 in0.0 mm 0.00 in0.0 mm
02:20 AM 71.7°F22.1°C 71.1°F21.7°C 98% Calm Calm -- 29.94 in1013.9 mb 0.00 in0.0 mm 0.00 in0.0 mm 0.00 in0.0 mm
02:10 AM 71.8°F22.1°C 71.2°F21.8°C 98% Calm Calm -- 29.94 in1013.9 mb 0.00 in0.0 mm 0.00 in0.0 mm 0.00 in0.0 mm
02:00 AM 71.9°F22.2°C 71.3°F21.8°C 98% Calm Calm -- 29.94 in1013.9 mb 0.00 in0.0 mm 0.00 in0.0 mm 0.00 in0.0 mm
01:50 AM 71.9°F22.2°C 71.3°F21.8°C 98% Calm Calm -- 29.93 in1013.5 mb 0.00 in0.0 mm 0.00 in0.0 mm 0.00 in0.0 mm
01:40 AM 72.0°F22.2°C 71.4°F21.9°C 98% Calm Calm -- 29.93 in1013.5 mb 0.00 in0.0 mm 0.00 in0.0 mm 0.00 in0.0 mm
01:30 AM 72.2°F22.3°C 71.6°F22.0°C 98% Calm Calm -- 29.94 in1013.9 mb 0.00 in0.0 mm 0.00 in0.0 mm 0.00 in0.0 mm
01:20 AM 72.2°F22.3°C 71.6°F22.0°C 98% Calm Calm -- 29.94 in1013.9 mb 0.00 in0.0 mm 0.00 in0.0 mm 0.00 in0.0 mm
01:10 AM 72.5°F22.5°C 71.9°F22.2°C 98% Calm Calm -- 29.94 in1013.9 mb 0.00 in0.0 mm 0.00 in0.0 mm 0.00 in0.0 mm
01:00 AM 72.4°F22.4°C 71.8°F22.1°C 98% Calm Calm -- 29.94 in1013.9 mb 0.00 in0.0 mm 0.00 in0.0 mm 0.00 in0.0 mm
12:50 AM 72.4°F22.4°C 71.8°F22.1°C 98% Calm Calm -- 29.94 in1013.9 mb 0.00 in0.0 mm 0.00 in0.0 mm 0.00 in0.0 mm
12:40 AM 72.6°F22.6°C 72.0°F22.2°C 98% Calm Calm -- 29.94 in1013.9 mb 0.00 in0.0 mm 0.00 in0.0 mm 0.00 in0.0 mm
12:30 AM 72.7°F22.6°C 72.1°F22.3°C 98% Calm Calm -- 29.94 in1013.9 mb 0.00 in0.0 mm 0.00 in0.0 mm 0.00 in0.0 mm
12:20 AM 72.7°F22.6°C 71.8°F22.1°C 97% Calm Calm -- 29.95 in1014.2 mb 0.00 in0.0 mm 0.00 in0.0 mm 0.00 in0.0 mm
12:10 AM 72.9°F22.7°C 72.0°F22.2°C 97% Calm Calm -- 29.94 in1013.9 mb 0.00 in0.0 mm 0.00 in0.0 mm 0.00 in0.0 mm
12:00 AM 73.0°F22.8°C 72.1°F22.3°C 97% Calm Calm -- 29.94 in1013.9 mb 0.00 in0.0 mm 0.00 in0.0 mm 0.00 in0.0 mm